sensor_id;sensor_type;location;lat;lon;timestamp;P1;durP1;ratioP1;P2;durP2;ratioP2
43891;SDS011;29555;45.350;5.578;2024-02-14T00:01:33;3.72;;;1.50;;
43891;SDS011;29555;45.350;5.578;2024-02-14T00:03:58;1.30;;;1.13;;
43891;SDS011;29555;45.350;5.578;2024-02-14T00:06:24;3.58;;;1.60;;
43891;SDS011;29555;45.350;5.578;2024-02-14T00:08:49;3.35;;;1.88;;
43891;SDS011;29555;45.350;5.578;2024-02-14T00:11:15;4.88;;;2.15;;
43891;SDS011;29555;45.350;5.578;2024-02-14T00:13:42;2.10;;;1.35;;
43891;SDS011;29555;45.350;5.578;2024-02-14T00:16:07;1.70;;;1.58;;
43891;SDS011;29555;45.350;5.578;2024-02-14T00:18:33;8.75;;;2.83;;
43891;SDS011;29555;45.350;5.578;2024-02-14T00:20:58;2.10;;;1.58;;
43891;SDS011;29555;45.350;5.578;2024-02-14T00:23:24;4.75;;;2.17;;
43891;SDS011;29555;45.350;5.578;2024-02-14T00:25:49;4.60;;;2.28;;
43891;SDS011;29555;45.350;5.578;2024-02-14T00:28:14;4.53;;;1.48;;
43891;SDS011;29555;45.350;5.578;2024-02-14T00:30:40;3.72;;;2.00;;
43891;SDS011;29555;45.350;5.578;2024-02-14T00:33:05;3.45;;;1.60;;
43891;SDS011;29555;45.350;5.578;2024-02-14T00:35:31;2.40;;;1.77;;
43891;SDS011;29555;45.350;5.578;2024-02-14T00:37:57;2.33;;;2.08;;
43891;SDS011;29555;45.350;5.578;2024-02-14T00:40:22;4.10;;;2.38;;
43891;SDS011;29555;45.350;5.578;2024-02-14T00:42:47;6.97;;;2.38;;
43891;SDS011;29555;45.350;5.578;2024-02-14T00:45:13;6.10;;;2.60;;
43891;SDS011;29555;45.350;5.578;2024-02-14T00:47:39;3.72;;;2.58;;
43891;SDS011;29555;45.350;5.578;2024-02-14T00:50:04;3.63;;;2.88;;
43891;SDS011;29555;45.350;5.578;2024-02-14T00:52:30;8.80;;;3.40;;
43891;SDS011;29555;45.350;5.578;2024-02-14T00:54:56;6.50;;;3.53;;
43891;SDS011;29555;45.350;5.578;2024-02-14T00:57:22;6.60;;;2.55;;
43891;SDS011;29555;45.350;5.578;2024-02-14T00:59:51;4.50;;;2.13;;
43891;SDS011;29555;45.350;5.578;2024-02-14T01:02:17;2.80;;;2.47;;
43891;SDS011;29555;45.350;5.578;2024-02-14T01:04:43;4.15;;;2.92;;
43891;SDS011;29555;45.350;5.578;2024-02-14T01:07:08;2.78;;;1.75;;
43891;SDS011;29555;45.350;5.578;2024-02-14T01:09:34;5.15;;;2.15;;
43891;SDS011;29555;45.350;5.578;2024-02-14T01:12:00;4.43;;;3.00;;
43891;SDS011;29555;45.350;5.578;2024-02-14T01:14:26;5.65;;;2.42;;
43891;SDS011;29555;45.350;5.578;2024-02-14T01:16:51;4.00;;;3.28;;
43891;SDS011;29555;45.350;5.578;2024-02-14T01:19:19;5.93;;;2.92;;
43891;SDS011;29555;45.350;5.578;2024-02-14T01:21:44;6.40;;;3.05;;
43891;SDS011;29555;45.350;5.578;2024-02-14T01:24:13;4.50;;;3.28;;
43891;SDS011;29555;45.350;5.578;2024-02-14T01:26:39;5.70;;;3.28;;
43891;SDS011;29555;45.350;5.578;2024-02-14T01:29:05;15.65;;;4.20;;
43891;SDS011;29555;45.350;5.578;2024-02-14T01:31:34;5.82;;;4.30;;
43891;SDS011;29555;45.350;5.578;2024-02-14T01:34:00;11.13;;;3.55;;
43891;SDS011;29555;45.350;5.578;2024-02-14T01:36:27;5.95;;;3.13;;
43891;SDS011;29555;45.350;5.578;2024-02-14T01:38:53;4.28;;;2.80;;
43891;SDS011;29555;45.350;5.578;2024-02-14T01:41:19;7.28;;;4.22;;
43891;SDS011;29555;45.350;5.578;2024-02-14T01:43:46;4.35;;;3.20;;
43891;SDS011;29555;45.350;5.578;2024-02-14T01:46:12;4.25;;;2.83;;
43891;SDS011;29555;45.350;5.578;2024-02-14T01:48:37;7.47;;;3.90;;
43891;SDS011;29555;45.350;5.578;2024-02-14T01:51:05;9.85;;;4.50;;
43891;SDS011;29555;45.350;5.578;2024-02-14T01:53:33;6.55;;;3.97;;
43891;SDS011;29555;45.350;5.578;2024-02-14T01:56:01;7.18;;;3.67;;
43891;SDS011;29555;45.350;5.578;2024-02-14T01:58:28;11.63;;;4.43;;
43891;SDS011;29555;45.350;5.578;2024-02-14T02:00:54;6.68;;;3.95;;
43891;SDS011;29555;45.350;5.578;2024-02-14T02:03:25;8.60;;;4.28;;
43891;SDS011;29555;45.350;5.578;2024-02-14T02:05:54;5.97;;;3.55;;
43891;SDS011;29555;45.350;5.578;2024-02-14T02:08:21;6.43;;;3.78;;
43891;SDS011;29555;45.350;5.578;2024-02-14T02:10:46;7.32;;;3.30;;
43891;SDS011;29555;45.350;5.578;2024-02-14T02:13:12;8.32;;;3.00;;
43891;SDS011;29555;45.350;5.578;2024-02-14T02:15:37;5.65;;;1.75;;
43891;SDS011;29555;45.350;5.578;2024-02-14T02:18:03;6.07;;;1.85;;
43891;SDS011;29555;45.350;5.578;2024-02-14T02:20:31;2.95;;;1.65;;
43891;SDS011;29555;45.350;5.578;2024-02-14T02:22:57;2.42;;;2.10;;
43891;SDS011;29555;45.350;5.578;2024-02-14T02:25:23;3.42;;;1.80;;
43891;SDS011;29555;45.350;5.578;2024-02-14T02:27:51;2.03;;;1.45;;
43891;SDS011;29555;45.350;5.578;2024-02-14T02:30:16;5.68;;;2.03;;
43891;SDS011;29555;45.350;5.578;2024-02-14T02:32:42;4.25;;;2.17;;
43891;SDS011;29555;45.350;5.578;2024-02-14T02:35:07;4.18;;;2.50;;
43891;SDS011;29555;45.350;5.578;2024-02-14T02:37:34;3.65;;;2.33;;
43891;SDS011;29555;45.350;5.578;2024-02-14T02:40:00;2.80;;;2.35;;
43891;SDS011;29555;45.350;5.578;2024-02-14T02:42:25;2.70;;;2.47;;
43891;SDS011;29555;45.350;5.578;2024-02-14T02:44:51;3.55;;;2.17;;
43891;SDS011;29555;45.350;5.578;2024-02-14T02:47:16;6.00;;;3.30;;
43891;SDS011;29555;45.350;5.578;2024-02-14T02:49:43;3.08;;;2.70;;
43891;SDS011;29555;45.350;5.578;2024-02-14T02:52:09;7.55;;;3.13;;
43891;SDS011;29555;45.350;5.578;2024-02-14T02:54:38;5.13;;;3.53;;
43891;SDS011;29555;45.350;5.578;2024-02-14T02:57:08;4.43;;;2.30;;
43891;SDS011;29555;45.350;5.578;2024-02-14T02:59:35;11.30;;;3.10;;
43891;SDS011;29555;45.350;5.578;2024-02-14T03:02:01;3.78;;;2.67;;
43891;SDS011;29555;45.350;5.578;2024-02-14T03:04:27;6.80;;;3.17;;
43891;SDS011;29555;45.350;5.578;2024-02-14T03:06:53;4.72;;;2.58;;
43891;SDS011;29555;45.350;5.578;2024-02-14T03:09:19;4.05;;;2.65;;
43891;SDS011;29555;45.350;5.578;2024-02-14T03:11:48;3.40;;;2.30;;
43891;SDS011;29555;45.350;5.578;2024-02-14T03:14:13;3.83;;;2.10;;
43891;SDS011;29555;45.350;5.578;2024-02-14T03:16:39;6.10;;;2.53;;
43891;SDS011;29555;45.350;5.578;2024-02-14T03:19:05;3.20;;;2.67;;
43891;SDS011;29555;45.350;5.578;2024-02-14T03:21:31;5.78;;;3.13;;
43891;SDS011;29555;45.350;5.578;2024-02-14T03:24:01;2.83;;;2.25;;
43891;SDS011;29555;45.350;5.578;2024-02-14T03:26:30;5.50;;;3.13;;
43891;SDS011;29555;45.350;5.578;2024-02-14T03:28:59;3.92;;;2.65;;
43891;SDS011;29555;45.350;5.578;2024-02-14T03:31:25;4.45;;;3.38;;
43891;SDS011;29555;45.350;5.578;2024-02-14T03:33:51;4.63;;;3.40;;
43891;SDS011;29555;45.350;5.578;2024-02-14T03:36:16;5.13;;;3.05;;
43891;SDS011;29555;45.350;5.578;2024-02-14T03:38:42;9.10;;;3.65;;
43891;SDS011;29555;45.350;5.578;2024-02-14T03:41:07;4.38;;;3.40;;
43891;SDS011;29555;45.350;5.578;2024-02-14T03:43:33;2.88;;;2.38;;
43891;SDS011;29555;45.350;5.578;2024-02-14T03:45:58;4.45;;;2.65;;
43891;SDS011;29555;45.350;5.578;2024-02-14T03:48:24;3.28;;;2.22;;
43891;SDS011;29555;45.350;5.578;2024-02-14T03:50:50;4.40;;;2.72;;
43891;SDS011;29555;45.350;5.578;2024-02-14T03:53:15;4.15;;;2.60;;
43891;SDS011;29555;45.350;5.578;2024-02-14T03:55:42;5.68;;;2.50;;
43891;SDS011;29555;45.350;5.578;2024-02-14T03:58:08;5.40;;;2.72;;
43891;SDS011;29555;45.350;5.578;2024-02-14T04:00:34;2.97;;;2.00;;
43891;SDS011;29555;45.350;5.578;2024-02-14T04:03:00;5.47;;;3.00;;
43891;SDS011;29555;45.350;5.578;2024-02-14T04:05:27;8.30;;;3.05;;
43891;SDS011;29555;45.350;5.578;2024-02-14T04:07:53;3.95;;;2.35;;
43891;SDS011;29555;45.350;5.578;2024-02-14T04:10:19;3.38;;;2.55;;
43891;SDS011;29555;45.350;5.578;2024-02-14T04:12:45;3.15;;;2.05;;
43891;SDS011;29555;45.350;5.578;2024-02-14T04:15:11;5.28;;;3.00;;
43891;SDS011;29555;45.350;5.578;2024-02-14T04:17:37;3.00;;;1.73;;
43891;SDS011;29555;45.350;5.578;2024-02-14T04:20:03;5.50;;;2.13;;
43891;SDS011;29555;45.350;5.578;2024-02-14T04:22:29;3.70;;;1.77;;
43891;SDS011;29555;45.350;5.578;2024-02-14T04:24:55;1.92;;;1.80;;
43891;SDS011;29555;45.350;5.578;2024-02-14T04:27:21;1.95;;;1.13;;
43891;SDS011;29555;45.350;5.578;2024-02-14T04:29:47;3.10;;;1.98;;
43891;SDS011;29555;45.350;5.578;2024-02-14T04:32:13;3.38;;;1.70;;
43891;SDS011;29555;45.350;5.578;2024-02-14T04:34:39;3.20;;;1.75;;
43891;SDS011;29555;45.350;5.578;2024-02-14T04:37:05;2.67;;;1.58;;
43891;SDS011;29555;45.350;5.578;2024-02-14T04:42:03;3.00;;;1.70;;
43891;SDS011;29555;45.350;5.578;2024-02-14T04:44:29;3.88;;;2.38;;
43891;SDS011;29555;45.350;5.578;2024-02-14T04:46:56;4.85;;;2.33;;
43891;SDS011;29555;45.350;5.578;2024-02-14T04:49:23;3.50;;;2.83;;
43891;SDS011;29555;45.350;5.578;2024-02-14T04:51:50;5.10;;;3.42;;
43891;SDS011;29555;45.350;5.578;2024-02-14T04:54:16;4.88;;;2.42;;
43891;SDS011;29555;45.350;5.578;2024-02-14T04:56:41;4.93;;;1.88;;
43891;SDS011;29555;45.350;5.578;2024-02-14T04:59:07;2.30;;;1.20;;
43891;SDS011;29555;45.350;5.578;2024-02-14T05:01:33;4.13;;;1.83;;
43891;SDS011;29555;45.350;5.578;2024-02-14T05:03:59;2.63;;;2.42;;
43891;SDS011;29555;45.350;5.578;2024-02-14T05:06:25;4.40;;;2.75;;
43891;SDS011;29555;45.350;5.578;2024-02-14T05:08:50;4.47;;;1.85;;
43891;SDS011;29555;45.350;5.578;2024-02-14T05:11:16;3.38;;;2.00;;
43891;SDS011;29555;45.350;5.578;2024-02-14T05:13:43;3.97;;;1.67;;
43891;SDS011;29555;45.350;5.578;2024-02-14T05:16:09;3.55;;;1.85;;
43891;SDS011;29555;45.350;5.578;2024-02-14T05:18:36;2.88;;;1.88;;
43891;SDS011;29555;45.350;5.578;2024-02-14T05:21:06;4.03;;;1.65;;
43891;SDS011;29555;45.350;5.578;2024-02-14T05:23:32;5.43;;;1.98;;
43891;SDS011;29555;45.350;5.578;2024-02-14T05:25:58;2.60;;;1.50;;
43891;SDS011;29555;45.350;5.578;2024-02-14T05:28:23;3.47;;;2.20;;
43891;SDS011;29555;45.350;5.578;2024-02-14T05:30:48;3.83;;;1.55;;
43891;SDS011;29555;45.350;5.578;2024-02-14T05:33:14;2.28;;;1.58;;
43891;SDS011;29555;45.350;5.578;2024-02-14T05:35:39;2.63;;;1.70;;
43891;SDS011;29555;45.350;5.578;2024-02-14T05:38:04;2.80;;;2.15;;
43891;SDS011;29555;45.350;5.578;2024-02-14T05:40:32;6.75;;;1.65;;
43891;SDS011;29555;45.350;5.578;2024-02-14T05:42:58;1.15;;;1.02;;
43891;SDS011;29555;45.350;5.578;2024-02-14T05:45:23;3.75;;;1.73;;
43891;SDS011;29555;45.350;5.578;2024-02-14T05:47:49;2.53;;;1.45;;
43891;SDS011;29555;45.350;5.578;2024-02-14T05:50:14;2.25;;;1.77;;
43891;SDS011;29555;45.350;5.578;2024-02-14T05:52:40;3.25;;;1.67;;
43891;SDS011;29555;45.350;5.578;2024-02-14T05:55:05;4.82;;;1.58;;
43891;SDS011;29555;45.350;5.578;2024-02-14T05:57:31;1.52;;;1.30;;
43891;SDS011;29555;45.350;5.578;2024-02-14T05:59:56;0.80;;;0.80;;
43891;SDS011;29555;45.350;5.578;2024-02-14T06:02:22;1.95;;;1.42;;
43891;SDS011;29555;45.350;5.578;2024-02-14T06:04:47;3.17;;;1.52;;
43891;SDS011;29555;45.350;5.578;2024-02-14T06:07:12;3.50;;;2.50;;
43891;SDS011;29555;45.350;5.578;2024-02-14T06:09:38;3.38;;;1.92;;
43891;SDS011;29555;45.350;5.578;2024-02-14T06:12:03;6.63;;;3.10;;
43891;SDS011;29555;45.350;5.578;2024-02-14T06:14:29;5.25;;;2.50;;
43891;SDS011;29555;45.350;5.578;2024-02-14T06:16:56;3.20;;;1.67;;
43891;SDS011;29555;45.350;5.578;2024-02-14T06:19:22;29.40;;;14.20;;
43891;SDS011;29555;45.350;5.578;2024-02-14T06:21:47;42.53;;;19.33;;
43891;SDS011;29555;45.350;5.578;2024-02-14T06:24:13;55.90;;;23.50;;
43891;SDS011;29555;45.350;5.578;2024-02-14T06:26:39;57.50;;;26.85;;
43891;SDS011;29555;45.350;5.578;2024-02-14T06:29:04;20.58;;;13.23;;
43891;SDS011;29555;45.350;5.578;2024-02-14T06:31:30;21.77;;;9.73;;
43891;SDS011;29555;45.350;5.578;2024-02-14T06:33:55;82.82;;;35.28;;
43891;SDS011;29555;45.350;5.578;2024-02-14T06:36:20;49.08;;;22.70;;
43891;SDS011;29555;45.350;5.578;2024-02-14T06:38:46;86.22;;;33.97;;
43891;SDS011;29555;45.350;5.578;2024-02-14T06:41:11;66.47;;;32.78;;
43891;SDS011;29555;45.350;5.578;2024-02-14T06:43:37;38.92;;;17.75;;
43891;SDS011;29555;45.350;5.578;2024-02-14T06:46:04;35.30;;;16.20;;
43891;SDS011;29555;45.350;5.578;2024-02-14T06:48:30;47.25;;;22.95;;
43891;SDS011;29555;45.350;5.578;2024-02-14T06:50:56;23.35;;;13.32;;
43891;SDS011;29555;45.350;5.578;2024-02-14T06:53:22;32.92;;;15.50;;
43891;SDS011;29555;45.350;5.578;2024-02-14T06:55:47;15.10;;;6.85;;
43891;SDS011;29555;45.350;5.578;2024-02-14T06:58:13;7.57;;;4.00;;
43891;SDS011;29555;45.350;5.578;2024-02-14T07:00:38;6.20;;;3.63;;
43891;SDS011;29555;45.350;5.578;2024-02-14T07:03:04;14.05;;;8.18;;
43891;SDS011;29555;45.350;5.578;2024-02-14T07:05:30;14.95;;;5.80;;
43891;SDS011;29555;45.350;5.578;2024-02-14T07:07:55;35.67;;;14.35;;
43891;SDS011;29555;45.350;5.578;2024-02-14T07:10:21;156.73;;;59.40;;
43891;SDS011;29555;45.350;5.578;2024-02-14T07:12:47;85.88;;;41.50;;
43891;SDS011;29555;45.350;5.578;2024-02-14T07:15:12;60.65;;;29.42;;
43891;SDS011;29555;45.350;5.578;2024-02-14T07:17:38;22.50;;;11.70;;
43891;SDS011;29555;45.350;5.578;2024-02-14T07:20:06;19.83;;;13.02;;
43891;SDS011;29555;45.350;5.578;2024-02-14T07:22:34;17.83;;;10.07;;
43891;SDS011;29555;45.350;5.578;2024-02-14T07:25:00;7.70;;;6.85;;
43891;SDS011;29555;45.350;5.578;2024-02-14T07:27:26;8.18;;;5.55;;
43891;SDS011;29555;45.350;5.578;2024-02-14T07:29:52;6.38;;;4.38;;
43891;SDS011;29555;45.350;5.578;2024-02-14T07:32:17;6.25;;;4.22;;
43891;SDS011;29555;45.350;5.578;2024-02-14T07:34:43;5.63;;;3.65;;
43891;SDS011;29555;45.350;5.578;2024-02-14T07:37:08;4.53;;;3.45;;
43891;SDS011;29555;45.350;5.578;2024-02-14T07:39:34;4.20;;;3.60;;
43891;SDS011;29555;45.350;5.578;2024-02-14T07:42:00;4.88;;;3.22;;
43891;SDS011;29555;45.350;5.578;2024-02-14T07:44:26;10.38;;;4.32;;
43891;SDS011;29555;45.350;5.578;2024-02-14T07:46:52;128.65;;;39.67;;
43891;SDS011;29555;45.350;5.578;2024-02-14T07:49:18;83.45;;;30.45;;
43891;SDS011;29555;45.350;5.578;2024-02-14T07:51:44;126.20;;;45.65;;
43891;SDS011;29555;45.350;5.578;2024-02-14T07:54:09;57.92;;;23.90;;
43891;SDS011;29555;45.350;5.578;2024-02-14T07:56:35;103.32;;;42.47;;
43891;SDS011;29555;45.350;5.578;2024-02-14T07:59:00;123.97;;;49.85;;
43891;SDS011;29555;45.350;5.578;2024-02-14T08:01:26;38.13;;;21.10;;
43891;SDS011;29555;45.350;5.578;2024-02-14T08:03:52;59.33;;;24.10;;
43891;SDS011;29555;45.350;5.578;2024-02-14T08:06:17;16.65;;;8.27;;
43891;SDS011;29555;45.350;5.578;2024-02-14T08:08:42;8.48;;;4.20;;
43891;SDS011;29555;45.350;5.578;2024-02-14T08:11:11;18.45;;;9.48;;
43891;SDS011;29555;45.350;5.578;2024-02-14T08:13:36;38.75;;;20.67;;
43891;SDS011;29555;45.350;5.578;2024-02-14T08:16:04;12.15;;;6.68;;
43891;SDS011;29555;45.350;5.578;2024-02-14T08:18:30;8.35;;;4.28;;
43891;SDS011;29555;45.350;5.578;2024-02-14T08:20:56;5.30;;;3.38;;
43891;SDS011;29555;45.350;5.578;2024-02-14T08:23:21;10.32;;;4.70;;
43891;SDS011;29555;45.350;5.578;2024-02-14T08:25:47;7.47;;;4.72;;
43891;SDS011;29555;45.350;5.578;2024-02-14T08:28:14;19.02;;;9.40;;
43891;SDS011;29555;45.350;5.578;2024-02-14T08:30:39;11.95;;;7.15;;
43891;SDS011;29555;45.350;5.578;2024-02-14T08:33:05;7.22;;;4.35;;
43891;SDS011;29555;45.350;5.578;2024-02-14T08:35:30;6.30;;;2.58;;
43891;SDS011;29555;45.350;5.578;2024-02-14T08:37:56;12.95;;;6.55;;
43891;SDS011;29555;45.350;5.578;2024-02-14T08:40:21;9.63;;;5.40;;
43891;SDS011;29555;45.350;5.578;2024-02-14T08:42:46;6.07;;;4.25;;
43891;SDS011;29555;45.350;5.578;2024-02-14T08:45:12;6.03;;;3.88;;
43891;SDS011;29555;45.350;5.578;2024-02-14T08:47:37;2.03;;;1.58;;
43891;SDS011;29555;45.350;5.578;2024-02-14T08:50:03;4.88;;;2.38;;
43891;SDS011;29555;45.350;5.578;2024-02-14T08:52:29;1.85;;;1.60;;
43891;SDS011;29555;45.350;5.578;2024-02-14T08:54:55;7.30;;;3.13;;
43891;SDS011;29555;45.350;5.578;2024-02-14T08:57:20;3.78;;;2.40;;
43891;SDS011;29555;45.350;5.578;2024-02-14T08:59:46;4.20;;;2.70;;
43891;SDS011;29555;45.350;5.578;2024-02-14T09:02:13;2.95;;;1.70;;
43891;SDS011;29555;45.350;5.578;2024-02-14T09:04:39;2.65;;;2.28;;
43891;SDS011;29555;45.350;5.578;2024-02-14T09:07:06;3.42;;;1.50;;
43891;SDS011;29555;45.350;5.578;2024-02-14T09:09:32;1.95;;;1.55;;
43891;SDS011;29555;45.350;5.578;2024-02-14T09:11:58;2.35;;;1.25;;
43891;SDS011;29555;45.350;5.578;2024-02-14T09:14:27;1.63;;;1.40;;
43891;SDS011;29555;45.350;5.578;2024-02-14T09:16:53;6.97;;;3.10;;
43891;SDS011;29555;45.350;5.578;2024-02-14T09:19:18;3.17;;;2.15;;
43891;SDS011;29555;45.350;5.578;2024-02-14T09:21:44;6.32;;;3.47;;
43891;SDS011;29555;45.350;5.578;2024-02-14T09:24:10;3.20;;;2.65;;
43891;SDS011;29555;45.350;5.578;2024-02-14T09:26:36;4.28;;;2.30;;
43891;SDS011;29555;45.350;5.578;2024-02-14T09:29:03;3.40;;;2.22;;
43891;SDS011;29555;45.350;5.578;2024-02-14T09:31:28;3.00;;;1.73;;
43891;SDS011;29555;45.350;5.578;2024-02-14T09:33:54;7.53;;;3.35;;
43891;SDS011;29555;45.350;5.578;2024-02-14T09:36:21;5.95;;;3.55;;
43891;SDS011;29555;45.350;5.578;2024-02-14T09:38:47;3.25;;;2.75;;
43891;SDS011;29555;45.350;5.578;2024-02-14T09:41:25;9.43;;;4.53;;
43891;SDS011;29555;45.350;5.578;2024-02-14T09:43:58;4.78;;;2.42;;
43891;SDS011;29555;45.350;5.578;2024-02-14T09:46:24;5.78;;;1.63;;
43891;SDS011;29555;45.350;5.578;2024-02-14T09:48:52;9.18;;;1.73;;
43891;SDS011;29555;45.350;5.578;2024-02-14T09:51:19;3.10;;;1.15;;
43891;SDS011;29555;45.350;5.578;2024-02-14T09:53:44;1.33;;;1.23;;
43891;SDS011;29555;45.350;5.578;2024-02-14T09:56:10;1.70;;;1.23;;
43891;SDS011;29555;45.350;5.578;2024-02-14T09:58:41;2.00;;;1.17;;
43891;SDS011;29555;45.350;5.578;2024-02-14T10:01:07;3.67;;;1.58;;
43891;SDS011;29555;45.350;5.578;2024-02-14T10:03:33;6.60;;;2.08;;
43891;SDS011;29555;45.350;5.578;2024-02-14T10:06:00;3.58;;;1.13;;
43891;SDS011;29555;45.350;5.578;2024-02-14T10:08:26;1.52;;;1.27;;
43891;SDS011;29555;45.350;5.578;2024-02-14T10:10:51;3.28;;;2.05;;
43891;SDS011;29555;45.350;5.578;2024-02-14T10:13:17;2.50;;;1.38;;
43891;SDS011;29555;45.350;5.578;2024-02-14T10:15:43;3.67;;;1.25;;
43891;SDS011;29555;45.350;5.578;2024-02-14T10:18:08;3.67;;;1.95;;
43891;SDS011;29555;45.350;5.578;2024-02-14T10:20:34;2.97;;;1.63;;
43891;SDS011;29555;45.350;5.578;2024-02-14T10:23:05;3.35;;;2.50;;
43891;SDS011;29555;45.350;5.578;2024-02-14T10:25:34;1.85;;;1.42;;
43891;SDS011;29555;45.350;5.578;2024-02-14T10:28:06;1.75;;;1.05;;
43891;SDS011;29555;45.350;5.578;2024-02-14T10:30:35;1.27;;;0.82;;
43891;SDS011;29555;45.350;5.578;2024-02-14T10:33:03;3.65;;;1.20;;
43891;SDS011;29555;45.350;5.578;2024-02-14T10:35:30;2.17;;;1.35;;
43891;SDS011;29555;45.350;5.578;2024-02-14T10:37:57;3.55;;;1.23;;
43891;SDS011;29555;45.350;5.578;2024-02-14T10:40:27;2.28;;;0.82;;
43891;SDS011;29555;45.350;5.578;2024-02-14T10:42:53;2.33;;;1.40;;
43891;SDS011;29555;45.350;5.578;2024-02-14T10:45:19;3.00;;;1.15;;
43891;SDS011;29555;45.350;5.578;2024-02-14T10:47:45;1.98;;;1.10;;
43891;SDS011;29555;45.350;5.578;2024-02-14T10:50:14;1.33;;;1.13;;
43891;SDS011;29555;45.350;5.578;2024-02-14T10:52:41;2.13;;;1.23;;
43891;SDS011;29555;45.350;5.578;2024-02-14T10:55:07;2.13;;;1.50;;
43891;SDS011;29555;45.350;5.578;2024-02-14T10:57:34;3.10;;;1.10;;
43891;SDS011;29555;45.350;5.578;2024-02-14T11:00:02;2.30;;;1.38;;
43891;SDS011;29555;45.350;5.578;2024-02-14T11:02:30;2.15;;;1.23;;
43891;SDS011;29555;45.350;5.578;2024-02-14T11:04:57;3.88;;;1.10;;
43891;SDS011;29555;45.350;5.578;2024-02-14T11:07:23;2.17;;;1.13;;
43891;SDS011;29555;45.350;5.578;2024-02-14T11:09:59;3.75;;;1.30;;
43891;SDS011;29555;45.350;5.578;2024-02-14T11:12:27;1.33;;;1.02;;
43891;SDS011;29555;45.350;5.578;2024-02-14T11:14:58;4.22;;;1.27;;
43891;SDS011;29555;45.350;5.578;2024-02-14T11:17:25;2.83;;;1.48;;
43891;SDS011;29555;45.350;5.578;2024-02-14T11:19:52;4.18;;;1.85;;
43891;SDS011;29555;45.350;5.578;2024-02-14T11:22:18;2.95;;;1.95;;
43891;SDS011;29555;45.350;5.578;2024-02-14T11:24:48;4.35;;;1.42;;
43891;SDS011;29555;45.350;5.578;2024-02-14T11:27:14;5.95;;;1.48;;
43891;SDS011;29555;45.350;5.578;2024-02-14T11:29:52;5.15;;;1.42;;
43891;SDS011;29555;45.350;5.578;2024-02-14T11:32:18;1.77;;;1.55;;
43891;SDS011;29555;45.350;5.578;2024-02-14T11:34:52;5.60;;;1.67;;
43891;SDS011;29555;45.350;5.578;2024-02-14T11:37:19;1.77;;;1.48;;
43891;SDS011;29555;45.350;5.578;2024-02-14T11:39:48;2.10;;;1.30;;
43891;SDS011;29555;45.350;5.578;2024-02-14T11:42:14;1.20;;;0.70;;
43891;SDS011;29555;45.350;5.578;2024-02-14T11:44:39;4.00;;;1.48;;
43891;SDS011;29555;45.350;5.578;2024-02-14T11:47:07;1.33;;;0.75;;
43891;SDS011;29555;45.350;5.578;2024-02-14T11:49:35;1.35;;;0.88;;
43891;SDS011;29555;45.350;5.578;2024-02-14T11:52:01;0.80;;;0.80;;
43891;SDS011;29555;45.350;5.578;2024-02-14T11:54:26;1.48;;;1.02;;
43891;SDS011;29555;45.350;5.578;2024-02-14T11:56:51;1.17;;;0.95;;
43891;SDS011;29555;45.350;5.578;2024-02-14T11:59:17;1.15;;;1.05;;
43891;SDS011;29555;45.350;5.578;2024-02-14T12:01:44;3.45;;;1.10;;
43891;SDS011;29555;45.350;5.578;2024-02-14T12:04:11;3.83;;;1.30;;
43891;SDS011;29555;45.350;5.578;2024-02-14T12:06:38;2.47;;;1.73;;
43891;SDS011;29555;45.350;5.578;2024-02-14T12:09:06;1.52;;;1.25;;
43891;SDS011;29555;45.350;5.578;2024-02-14T12:11:35;3.17;;;1.27;;
43891;SDS011;29555;45.350;5.578;2024-02-14T12:14:07;1.33;;;0.82;;
43891;SDS011;29555;45.350;5.578;2024-02-14T12:16:34;3.20;;;0.63;;
43891;SDS011;29555;45.350;5.578;2024-02-14T12:21:48;0.93;;;0.90;;
43891;SDS011;29555;45.350;5.578;2024-02-14T12:24:14;1.70;;;1.00;;
43891;SDS011;29555;45.350;5.578;2024-02-14T12:26:40;1.20;;;0.75;;
43891;SDS011;29555;45.350;5.578;2024-02-14T12:29:06;2.13;;;1.15;;
43891;SDS011;29555;45.350;5.578;2024-02-14T12:31:33;1.02;;;0.75;;
43891;SDS011;29555;45.350;5.578;2024-02-14T12:33:59;3.53;;;1.20;;
43891;SDS011;29555;45.350;5.578;2024-02-14T12:36:30;1.10;;;0.80;;
43891;SDS011;29555;45.350;5.578;2024-02-14T12:38:57;4.53;;;1.20;;
43891;SDS011;29555;45.350;5.578;2024-02-14T12:41:23;2.28;;;0.77;;
43891;SDS011;29555;45.350;5.578;2024-02-14T12:43:51;1.35;;;1.25;;
43891;SDS011;29555;45.350;5.578;2024-02-14T12:46:17;1.75;;;1.13;;
43891;SDS011;29555;45.350;5.578;2024-02-14T12:48:42;3.70;;;1.50;;
43891;SDS011;29555;45.350;5.578;2024-02-14T12:51:08;1.17;;;1.08;;
43891;SDS011;29555;45.350;5.578;2024-02-14T12:53:33;2.22;;;1.05;;
43891;SDS011;29555;45.350;5.578;2024-02-14T12:55:59;1.85;;;0.88;;
43891;SDS011;29555;45.350;5.578;2024-02-14T12:58:25;3.85;;;1.77;;
43891;SDS011;29555;45.350;5.578;2024-02-14T13:00:50;1.00;;;0.75;;
43891;SDS011;29555;45.350;5.578;2024-02-14T13:03:16;0.85;;;0.80;;
43891;SDS011;29555;45.350;5.578;2024-02-14T13:05:42;2.22;;;0.70;;
43891;SDS011;29555;45.350;5.578;2024-02-14T13:08:07;4.43;;;1.13;;
43891;SDS011;29555;45.350;5.578;2024-02-14T13:10:36;2.13;;;0.82;;
43891;SDS011;29555;45.350;5.578;2024-02-14T13:13:01;2.88;;;1.42;;
43891;SDS011;29555;45.350;5.578;2024-02-14T13:15:27;3.28;;;1.50;;
43891;SDS011;29555;45.350;5.578;2024-02-14T13:17:52;2.63;;;1.38;;
43891;SDS011;29555;45.350;5.578;2024-02-14T13:20:17;8.43;;;1.17;;
43891;SDS011;29555;45.350;5.578;2024-02-14T13:22:43;10.57;;;1.80;;
43891;SDS011;29555;45.350;5.578;2024-02-14T13:25:08;1.65;;;0.88;;
43891;SDS011;29555;45.350;5.578;2024-02-14T13:27:34;0.77;;;0.47;;
43891;SDS011;29555;45.350;5.578;2024-02-14T13:30:00;1.38;;;0.77;;
43891;SDS011;29555;45.350;5.578;2024-02-14T13:32:26;3.67;;;1.17;;
43891;SDS011;29555;45.350;5.578;2024-02-14T13:34:52;1.55;;;1.42;;
43891;SDS011;29555;45.350;5.578;2024-02-14T13:37:17;1.55;;;1.40;;
43891;SDS011;29555;45.350;5.578;2024-02-14T13:39:43;3.33;;;1.35;;
43891;SDS011;29555;45.350;5.578;2024-02-14T13:42:09;1.20;;;0.95;;
43891;SDS011;29555;45.350;5.578;2024-02-14T13:44:34;2.97;;;1.33;;
43891;SDS011;29555;45.350;5.578;2024-02-14T13:46:59;2.13;;;0.98;;
43891;SDS011;29555;45.350;5.578;2024-02-14T13:49:25;1.25;;;0.75;;
43891;SDS011;29555;45.350;5.578;2024-02-14T13:51:51;1.35;;;1.08;;
43891;SDS011;29555;45.350;5.578;2024-02-14T13:54:17;2.13;;;1.20;;
43891;SDS011;29555;45.350;5.578;2024-02-14T13:56:43;2.22;;;1.55;;
43891;SDS011;29555;45.350;5.578;2024-02-14T13:59:09;1.48;;;1.33;;
43891;SDS011;29555;45.350;5.578;2024-02-14T14:01:35;1.45;;;0.77;;
43891;SDS011;29555;45.350;5.578;2024-02-14T14:04:01;0.68;;;0.68;;
43891;SDS011;29555;45.350;5.578;2024-02-14T14:06:26;1.30;;;0.73;;
43891;SDS011;29555;45.350;5.578;2024-02-14T14:08:52;2.90;;;1.08;;
43891;SDS011;29555;45.350;5.578;2024-02-14T14:11:17;1.98;;;1.17;;
43891;SDS011;29555;45.350;5.578;2024-02-14T14:13:42;1.10;;;1.02;;
43891;SDS011;29555;45.350;5.578;2024-02-14T14:16:08;1.00;;;0.93;;
43891;SDS011;29555;45.350;5.578;2024-02-14T14:18:36;2.08;;;0.85;;
43891;SDS011;29555;45.350;5.578;2024-02-14T14:21:01;4.05;;;1.13;;
43891;SDS011;29555;45.350;5.578;2024-02-14T14:23:28;4.22;;;1.60;;
43891;SDS011;29555;45.350;5.578;2024-02-14T14:25:53;1.20;;;0.98;;
43891;SDS011;29555;45.350;5.578;2024-02-14T14:28:19;1.27;;;1.17;;
43891;SDS011;29555;45.350;5.578;2024-02-14T14:30:49;7.80;;;1.48;;
43891;SDS011;29555;45.350;5.578;2024-02-14T14:33:21;2.28;;;1.30;;
43891;SDS011;29555;45.350;5.578;2024-02-14T14:35:47;0.52;;;0.50;;
43891;SDS011;29555;45.350;5.578;2024-02-14T14:38:15;2.72;;;0.73;;
43891;SDS011;29555;45.350;5.578;2024-02-14T14:40:41;3.10;;;0.98;;
43891;SDS011;29555;45.350;5.578;2024-02-14T14:43:06;1.30;;;1.02;;
43891;SDS011;29555;45.350;5.578;2024-02-14T14:45:32;1.42;;;1.23;;